createdAt,value
2022-08-26T00:01:56.315Z,62.96
2022-08-26T00:04:25.178Z,63.27
2022-08-26T00:06:55.874Z,63.82
2022-08-26T00:09:24.941Z,63.27
2022-08-26T00:11:54.242Z,62.98
2022-08-26T00:14:27.041Z,63.66
2022-08-26T00:16:56.943Z,63.81
2022-08-26T00:19:24.839Z,64.10
2022-08-26T00:21:52.346Z,65.76
2022-08-26T00:24:21.842Z,63.82
2022-08-26T00:26:49.683Z,64.39
2022-08-26T00:29:17.870Z,65.88
2022-08-26T00:31:45.750Z,67.17
2022-08-26T00:34:14.272Z,68.37
2022-08-26T00:36:43.608Z,65.12
2022-08-26T00:39:14.124Z,68.50
2022-08-26T00:41:41.817Z,68.46
2022-08-26T00:44:11.074Z,68.63
2022-08-26T00:46:46.819Z,69.28
2022-08-26T00:49:22.073Z,69.11
2022-08-26T00:51:54.232Z,68.87
2022-08-26T00:54:27.022Z,69.11
2022-08-26T00:57:16.025Z,68.83
2022-08-26T00:59:49.560Z,68.83
2022-08-26T01:02:21.327Z,66.85
2022-08-26T01:04:56.527Z,63.56
2022-08-26T01:07:30.158Z,67.93
2022-08-26T01:10:01.439Z,67.90
2022-08-26T01:12:34.246Z,65.49
2022-08-26T01:15:03.188Z,67.00
2022-08-26T01:17:33.257Z,69.17
2022-08-26T01:20:24.981Z,70.74
2022-08-26T01:22:58.730Z,75.16
2022-08-26T01:25:33.293Z,73.52
2022-08-26T01:28:05.748Z,67.16
2022-08-26T01:30:35.491Z,71.40
2022-08-26T01:33:08.363Z,71.04
2022-08-26T01:35:37.537Z,68.13
2022-08-26T01:38:06.136Z,68.87
2022-08-26T01:40:38.022Z,70.87
2022-08-26T01:43:08.697Z,71.67
2022-08-26T01:45:41.613Z,73.44
2022-08-26T01:48:16.311Z,72.48
2022-08-26T01:50:46.149Z,72.26
2022-08-26T01:53:16.803Z,73.20
2022-08-26T01:55:49.353Z,73.73
2022-08-26T01:58:26.208Z,72.99
2022-08-26T02:00:54.181Z,71.27
2022-08-26T02:03:22.271Z,68.12
2022-08-26T02:05:53.589Z,70.68
2022-08-26T02:08:29.295Z,71.80
2022-08-26T02:10:56.509Z,71.25
2022-08-26T02:13:26.971Z,73.28
2022-08-26T02:15:55.685Z,72.03
2022-08-26T02:18:23.967Z,70.43
2022-08-26T02:20:54.540Z,70.45
2022-08-26T02:23:23.964Z,71.00
2022-08-26T02:26:08.447Z,73.89
2022-08-26T02:29:05.879Z,74.46
2022-08-26T02:31:35.094Z,73.63
2022-08-26T02:34:33.107Z,74.41
2022-08-26T02:37:05.093Z,75.13
2022-08-26T02:39:34.034Z,74.63
2022-08-26T02:42:01.579Z,74.33
2022-08-26T02:44:28.879Z,75.28
2022-08-26T02:47:02.342Z,75.75
2022-08-26T02:49:33.755Z,76.03
2022-08-26T02:52:01.902Z,75.39
2022-08-26T02:54:29.230Z,77.20
2022-08-26T02:56:56.309Z,75.67
2022-08-26T02:59:24.451Z,75.68
2022-08-26T03:01:52.623Z,75.50
2022-08-26T03:04:25.825Z,76.53
2022-08-26T03:06:55.382Z,76.32
2022-08-26T03:09:24.052Z,76.76
2022-08-26T03:11:52.368Z,75.93
2022-08-26T03:14:19.488Z,75.42
2022-08-26T03:16:48.449Z,75.24
2022-08-26T03:19:15.706Z,76.56
2022-08-26T03:21:45.191Z,78.18
2022-08-26T03:24:15.560Z,78.54
2022-08-26T03:26:51.914Z,76.22
2022-08-26T03:29:40.628Z,76.16
2022-08-26T03:32:08.634Z,78.60
2022-08-26T03:34:36.449Z,76.57
2022-08-26T03:37:03.624Z,77.07
2022-08-26T03:39:31.787Z,76.90
2022-08-26T03:41:59.931Z,76.47
2022-08-26T03:44:27.361Z,77.52
2022-08-26T03:47:20.086Z,77.15
2022-08-26T03:49:47.471Z,76.34
2022-08-26T03:52:19.764Z,75.85
2022-08-26T03:54:47.221Z,77.01
2022-08-26T03:57:14.319Z,76.63
2022-08-26T03:59:44.126Z,74.35
2022-08-26T04:02:11.944Z,75.80
2022-08-26T04:04:39.701Z,77.85
2022-08-26T04:07:07.367Z,78.73
2022-08-26T04:09:35.336Z,77.15
2022-08-26T04:12:03.844Z,78.79
2022-08-26T04:14:32.133Z,79.67
2022-08-26T04:16:59.372Z,80.56
2022-08-26T04:19:26.582Z,80.36
2022-08-26T04:21:54.439Z,82.23
2022-08-26T04:24:25.348Z,80.59
2022-08-26T04:26:52.533Z,82.31
2022-08-26T04:29:25.334Z,82.95
2022-08-26T04:31:57.198Z,83.91
2022-08-26T04:34:28.336Z,82.40
2022-08-26T04:36:58.260Z,79.76
2022-08-26T04:39:27.703Z,77.83
2022-08-26T04:41:55.554Z,77.99
2022-08-26T04:44:28.258Z,80.74
2022-08-26T04:46:58.667Z,78.45
2022-08-26T04:49:27.504Z,81.92
2022-08-26T04:51:55.053Z,81.10
2022-08-26T04:54:23.307Z,80.47
2022-08-26T04:56:52.556Z,79.20
2022-08-26T04:59:20.003Z,79.94
2022-08-26T05:01:52.165Z,79.23
2022-08-26T05:04:21.013Z,79.08
2022-08-26T05:06:49.031Z,78.38
2022-08-26T05:09:18.298Z,78.86
2022-08-26T05:11:48.471Z,79.20
2022-08-26T05:14:23.128Z,77.82
2022-08-26T05:16:51.609Z,79.35
2022-08-26T05:19:19.507Z,81.17
2022-08-26T05:21:48.741Z,80.71
2022-08-26T05:24:17.773Z,80.87
2022-08-26T05:26:46.741Z,79.86
2022-08-26T05:29:14.236Z,77.59
2022-08-26T05:31:41.982Z,77.91
2022-08-26T05:34:10.116Z,77.62
2022-08-26T05:36:37.903Z,77.15
2022-08-26T05:39:07.129Z,75.62
2022-08-26T05:41:38.586Z,74.70
2022-08-26T05:44:09.849Z,67.63
2022-08-26T05:46:38.350Z,74.21
2022-08-26T05:49:13.065Z,74.70
2022-08-26T05:51:46.296Z,70.27
2022-08-26T05:54:21.866Z,74.89
2022-08-26T05:56:51.844Z,75.54
2022-08-26T05:59:24.207Z,76.15
2022-08-26T06:01:54.637Z,74.78
2022-08-26T06:04:26.783Z,73.96
2022-08-26T06:06:55.577Z,72.78
2022-08-26T06:09:23.285Z,73.23
2022-08-26T06:11:50.974Z,71.71
2022-08-26T06:14:18.169Z,71.48
2022-08-26T06:16:45.973Z,66.83
2022-08-26T06:19:15.588Z,70.40
2022-08-26T06:21:54.036Z,70.54
2022-08-26T06:24:39.925Z,70.83
2022-08-26T06:27:09.991Z,70.49
2022-08-26T06:29:39.348Z,69.72
2022-08-26T06:32:06.947Z,68.88
2022-08-26T06:34:35.985Z,67.48
2022-08-26T06:37:03.636Z,65.32
2022-08-26T06:39:31.833Z,65.85
2022-08-26T06:42:01.155Z,66.78
2022-08-26T06:44:34.278Z,64.62
2022-08-26T06:47:01.770Z,67.67
2022-08-26T06:49:29.143Z,68.89
2022-08-26T06:51:59.966Z,66.51
2022-08-26T06:54:31.703Z,66.75
2022-08-26T06:56:59.789Z,66.15
2022-08-26T06:59:27.108Z,63.99
2022-08-26T07:01:55.039Z,63.62
2022-08-26T07:04:24.528Z,65.44
2022-08-26T07:06:53.543Z,64.04
2022-08-26T07:09:28.050Z,64.12
2022-08-26T07:11:59.117Z,64.79
2022-08-26T07:14:26.601Z,63.72
2022-08-26T07:16:54.997Z,62.67
2022-08-26T07:19:30.746Z,62.04
2022-08-26T07:22:02.287Z,58.28
2022-08-26T07:24:33.558Z,61.45
2022-08-26T07:27:08.948Z,60.55
2022-08-26T07:29:37.920Z,61.20
2022-08-26T07:32:06.518Z,61.87
2022-08-26T07:34:33.975Z,62.15
2022-08-26T07:37:01.260Z,60.78
2022-08-26T07:39:31.613Z,59.06
2022-08-26T07:42:07.231Z,58.55
2022-08-26T07:44:37.594Z,58.42
2022-08-26T07:47:24.254Z,56.50
2022-08-26T07:49:56.185Z,56.80
2022-08-26T07:52:27.218Z,55.44
2022-08-26T07:54:59.549Z,53.82
2022-08-26T07:57:28.909Z,53.43
2022-08-26T07:59:57.568Z,54.21
2022-08-26T08:02:26.726Z,53.76
2022-08-26T08:04:55.198Z,52.20
2022-08-26T08:07:25.834Z,53.09
2022-08-26T08:10:14.581Z,52.37
2022-08-26T08:12:43.222Z,51.04
2022-08-26T08:15:13.941Z,51.20
2022-08-26T08:17:43.501Z,49.97
2022-08-26T08:20:13.120Z,49.27
2022-08-26T08:22:45.211Z,47.82
2022-08-26T08:25:14.704Z,47.46
2022-08-26T08:27:45.194Z,46.66
2022-08-26T08:30:14.169Z,45.92
2022-08-26T08:32:43.503Z,46.43
2022-08-26T08:35:13.817Z,45.96
2022-08-26T08:37:41.770Z,46.21
2022-08-26T08:40:17.189Z,45.24
2022-08-26T08:42:58.594Z,45.47
2022-08-26T08:45:35.918Z,45.09
2022-08-26T08:48:27.895Z,47.44
2022-08-26T08:51:21.796Z,45.69
2022-08-26T08:53:54.939Z,43.08
2022-08-26T08:56:43.149Z,42.86
2022-08-26T08:59:20.877Z,43.77
2022-08-26T09:02:14.865Z,43.53
2022-08-26T09:05:17.275Z,43.62
2022-08-26T09:08:11.381Z,42.81
2022-08-26T09:10:41.333Z,42.05
2022-08-26T09:13:25.130Z,40.92
2022-08-26T09:16:27.842Z,41.18
2022-08-26T09:19:04.953Z,42.19
2022-08-26T09:21:33.306Z,41.22
2022-08-26T09:24:00.791Z,41.53
2022-08-26T09:26:45.845Z,41.55
2022-08-26T09:29:42.365Z,40.73
2022-08-26T09:32:19.331Z,40.56
2022-08-26T09:35:01.244Z,38.97
2022-08-26T09:37:39.812Z,39.55
2022-08-26T09:40:16.539Z,38.48
2022-08-26T09:42:44.958Z,37.58
2022-08-26T09:45:28.295Z,37.77
2022-08-26T09:47:57.019Z,38.52
2022-08-26T09:50:41.089Z,37.91
2022-08-26T09:53:28.576Z,39.07
2022-08-26T09:56:34.768Z,38.97
2022-08-26T09:59:03.133Z,38.61
2022-08-26T10:01:42.359Z,38.56
2022-08-26T10:04:26.594Z,39.84
2022-08-26T10:07:09.802Z,39.15
2022-08-26T10:09:43.047Z,39.83
2022-08-26T10:12:20.498Z,39.23
2022-08-26T10:15:02.023Z,39.71
2022-08-26T10:17:36.663Z,40.26
2022-08-26T10:20:23.379Z,40.86
2022-08-26T10:23:18.822Z,40.19
2022-08-26T10:25:59.210Z,39.29
2022-08-26T10:28:42.051Z,38.45
2022-08-26T10:31:28.237Z,37.70
2022-08-26T10:34:00.017Z,38.01
2022-08-26T10:40:01.655Z,37.20
2022-08-26T10:43:08.516Z,36.42
2022-08-26T10:45:48.031Z,36.82
2022-08-26T10:48:35.595Z,37.21
2022-08-26T10:51:04.228Z,36.84
2022-08-26T10:53:42.521Z,37.09
2022-08-26T10:56:49.615Z,35.69
2022-08-26T10:59:56.010Z,34.43
2022-08-26T11:02:48.220Z,34.67
2022-08-26T11:05:20.271Z,34.31
2022-08-26T11:07:54.822Z,34.43
2022-08-26T11:10:22.875Z,33.48
2022-08-26T11:13:06.766Z,31.31
2022-08-26T11:15:40.012Z,31.70
2022-08-26T11:18:10.938Z,31.55
2022-08-26T11:20:45.994Z,30.40
2022-08-26T11:23:23.411Z,31.26
2022-08-26T11:26:09.358Z,32.55
2022-08-26T11:28:49.856Z,33.33
2022-08-26T11:31:26.688Z,33.36
2022-08-26T11:33:59.483Z,33.48
2022-08-26T11:36:45.397Z,33.82
2022-08-26T11:39:30.604Z,33.72
2022-08-26T11:42:55.635Z,34.33
2022-08-26T11:46:19.481Z,33.85
2022-08-26T11:49:43.473Z,34.16
2022-08-26T11:52:25.435Z,33.57
2022-08-26T11:55:49.762Z,32.36
2022-08-26T11:58:17.404Z,31.88
2022-08-26T12:01:42.048Z,33.07
2022-08-26T12:04:17.858Z,31.88
2022-08-26T12:07:42.698Z,30.61
2022-08-26T12:10:11.155Z,29.12
2022-08-26T12:13:35.794Z,28.30
2022-08-26T12:16:06.153Z,26.62
2022-08-26T12:19:32.998Z,25.88
2022-08-26T12:22:56.857Z,24.26
2022-08-26T12:25:25.247Z,23.26
2022-08-26T12:28:49.011Z,22.38
2022-08-26T12:31:42.668Z,21.51
2022-08-26T12:34:18.039Z,20.83
2022-08-26T12:37:42.865Z,20.09
2022-08-26T12:40:30.269Z,20.24
2022-08-26T12:43:02.128Z,19.42
2022-08-26T12:45:43.812Z,22.14
2022-08-26T12:48:29.418Z,20.83
2022-08-26T12:50:58.121Z,21.25
2022-08-26T12:53:29.897Z,22.01
2022-08-26T12:56:04.762Z,22.44
2022-08-26T12:58:35.022Z,22.51
2022-08-26T13:01:05.979Z,20.86
2022-08-26T13:03:45.542Z,19.76
2022-08-26T13:06:22.242Z,19.96
2022-08-26T13:09:18.633Z,19.34
2022-08-26T13:11:45.730Z,18.81
2022-08-26T13:14:21.190Z,19.00
2022-08-26T13:16:52.747Z,18.69
2022-08-26T13:19:23.808Z,18.77
2022-08-26T13:21:55.341Z,18.70
2022-08-26T13:24:31.586Z,18.53
2022-08-26T13:26:59.340Z,19.48
2022-08-26T13:29:26.672Z,18.98
2022-08-26T13:31:54.252Z,19.84
2022-08-26T13:34:23.301Z,19.36
2022-08-26T13:36:54.068Z,18.77
2022-08-26T13:39:22.773Z,18.44
2022-08-26T13:41:50.089Z,18.77
2022-08-26T13:44:17.905Z,19.05
2022-08-26T13:49:18.072Z,21.12
2022-08-26T13:51:45.690Z,24.67
2022-08-26T13:54:13.134Z,25.51
2022-08-26T13:56:40.472Z,27.15
2022-08-26T13:59:07.614Z,27.40
2022-08-26T14:01:36.047Z,28.09
2022-08-26T14:04:03.730Z,28.41
2022-08-26T14:06:31.535Z,28.79
2022-08-26T14:08:58.763Z,29.59
2022-08-26T14:11:26.901Z,29.69
2022-08-26T14:13:54.027Z,29.70
2022-08-26T14:16:26.375Z,29.80
2022-08-26T14:18:54.018Z,30.02
2022-08-26T14:21:22.073Z,30.96
2022-08-26T14:23:49.273Z,31.03
2022-08-26T14:26:29.164Z,31.22
2022-08-26T14:28:59.410Z,31.95
2022-08-26T14:31:29.419Z,31.97
2022-08-26T14:34:01.555Z,32.02
2022-08-26T14:36:28.993Z,32.65
2022-08-26T14:39:00.748Z,32.72
2022-08-26T14:41:30.456Z,33.41
2022-08-26T14:44:06.162Z,34.07
2022-08-26T14:46:42.809Z,34.32
2022-08-26T14:49:10.860Z,33.52
2022-08-26T14:51:40.942Z,34.69
2022-08-26T14:54:13.448Z,34.66
2022-08-26T14:56:52.019Z,35.70
2022-08-26T14:59:30.730Z,36.66
2022-08-26T15:01:59.452Z,36.30
2022-08-26T15:04:27.238Z,36.87
2022-08-26T15:06:57.633Z,36.89
2022-08-26T15:09:26.917Z,37.19
2022-08-26T15:11:54.108Z,37.23
2022-08-26T15:14:23.102Z,37.46
2022-08-26T15:16:54.368Z,37.59
2022-08-26T15:19:23.255Z,37.92
2022-08-26T15:21:51.780Z,37.47
2022-08-26T15:24:22.720Z,37.67
2022-08-26T15:26:50.889Z,39.93
2022-08-26T15:29:18.667Z,39.38
2022-08-26T15:31:46.242Z,39.28
2022-08-26T15:34:16.819Z,38.68
2022-08-26T15:36:46.992Z,38.71
2022-08-26T15:39:17.051Z,38.51
2022-08-26T15:41:44.651Z,39.31
2022-08-26T15:44:13.978Z,38.88
2022-08-26T15:46:41.989Z,40.00
2022-08-26T15:49:09.574Z,40.33
2022-08-26T15:51:46.946Z,40.89
2022-08-26T15:54:17.263Z,40.39
2022-08-26T15:56:47.908Z,40.00
2022-08-26T15:59:16.005Z,39.65
2022-08-26T16:01:43.672Z,39.65
2022-08-26T16:04:11.425Z,40.04
2022-08-26T16:06:40.824Z,39.64
2022-08-26T16:09:08.489Z,39.66
2022-08-26T16:11:36.112Z,39.79
2022-08-26T16:14:04.620Z,40.71
2022-08-26T16:16:32.170Z,40.83
2022-08-26T16:19:01.278Z,46.81
2022-08-26T16:21:31.187Z,52.58
2022-08-26T16:23:59.018Z,54.31
2022-08-26T16:26:32.792Z,63.89
2022-08-26T16:29:10.327Z,60.32
2022-08-26T16:31:38.327Z,62.21
2022-08-26T16:34:07.764Z,64.27
2022-08-26T16:36:37.845Z,70.37
2022-08-26T16:39:07.137Z,78.99
2022-08-26T16:41:34.972Z,87.99
2022-08-26T16:44:03.158Z,89.29
2022-08-26T16:46:30.475Z,90.60
2022-08-26T16:48:59.228Z,90.45
2022-08-26T16:51:28.572Z,87.53
2022-08-26T16:53:57.700Z,81.34
2022-08-26T16:56:33.901Z,80.06
2022-08-26T16:59:07.985Z,80.13
2022-08-26T17:01:35.243Z,78.78
2022-08-26T17:04:02.622Z,77.81
2022-08-26T17:06:29.794Z,75.96
2022-08-26T17:08:56.897Z,75.73
2022-08-26T17:11:24.088Z,73.35
2022-08-26T17:13:51.515Z,83.44
2022-08-26T17:16:20.396Z,78.22
2022-08-26T17:18:48.436Z,83.37
2022-08-26T17:21:16.029Z,86.67
2022-08-26T17:23:43.859Z,87.66
2022-08-26T17:26:12.399Z,80.70
2022-08-26T17:28:40.677Z,85.58
2022-08-26T17:31:10.697Z,87.88
2022-08-26T17:33:39.219Z,92.69
2022-08-26T17:36:08.972Z,94.25
2022-08-26T17:38:38.040Z,94.64
2022-08-26T17:41:10.984Z,86.83
2022-08-26T17:43:39.243Z,95.58
2022-08-26T17:46:09.777Z,95.38
2022-08-26T17:48:39.227Z,100.00
2022-08-26T17:51:16.929Z,100.00
2022-08-26T17:53:44.923Z,100.00
2022-08-26T17:56:15.119Z,100.00
2022-08-26T17:58:48.046Z,100.00
2022-08-26T18:01:21.878Z,100.00
2022-08-26T18:03:49.866Z,100.00
2022-08-26T18:06:17.120Z,100.00
2022-08-26T18:08:44.898Z,100.00
2022-08-26T18:11:18.020Z,100.00
2022-08-26T18:13:47.435Z,100.00
2022-08-26T18:16:17.215Z,100.00
2022-08-26T18:18:44.880Z,100.00
2022-08-26T18:21:19.476Z,100.00
2022-08-26T18:23:47.820Z,100.00
2022-08-26T18:26:27.800Z,100.00
2022-08-26T18:28:55.466Z,100.00
2022-08-26T18:31:23.424Z,100.00
2022-08-26T18:33:50.781Z,100.00
2022-08-26T18:36:26.760Z,100.00
2022-08-26T18:38:54.552Z,100.00
2022-08-26T18:41:24.844Z,100.00
2022-08-26T18:43:53.340Z,100.00
2022-08-26T18:46:23.036Z,100.00
2022-08-26T18:48:51.412Z,100.00
2022-08-26T18:51:25.218Z,100.00
2022-08-26T18:53:52.829Z,100.00
2022-08-26T18:56:20.287Z,100.00
2022-08-26T18:58:48.669Z,100.00
2022-08-26T19:01:18.088Z,100.00
2022-08-26T19:03:46.568Z,100.00
2022-08-26T19:06:17.526Z,100.00
2022-08-26T19:08:45.301Z,100.00
2022-08-26T19:11:31.852Z,100.00
2022-08-26T19:14:07.984Z,100.00
2022-08-26T19:16:36.623Z,100.00
2022-08-26T19:19:03.984Z,100.00
2022-08-26T19:21:33.399Z,100.00
2022-08-26T19:24:03.734Z,100.00
2022-08-26T19:26:31.865Z,100.00
2022-08-26T19:29:00.254Z,100.00
2022-08-26T19:31:28.151Z,100.00
2022-08-26T19:33:56.643Z,100.00
2022-08-26T19:36:25.969Z,100.00
2022-08-26T19:38:54.015Z,100.00
2022-08-26T19:41:36.827Z,100.00
2022-08-26T19:44:13.160Z,100.00
2022-08-26T19:46:40.771Z,100.00
2022-08-26T19:49:07.875Z,100.00
2022-08-26T19:51:36.554Z,100.00
2022-08-26T19:54:04.787Z,100.00
2022-08-26T19:56:32.012Z,100.00
2022-08-26T19:58:59.349Z,100.00
2022-08-26T20:01:26.758Z,100.00
2022-08-26T20:06:21.222Z,100.00
2022-08-26T20:08:50.788Z,100.00
2022-08-26T20:11:19.559Z,100.00
2022-08-26T20:13:48.022Z,100.00
2022-08-26T20:16:16.286Z,100.00
2022-08-26T20:19:04.463Z,100.00
2022-08-26T20:21:38.087Z,100.00
2022-08-26T20:24:14.002Z,100.00
2022-08-26T20:26:43.471Z,100.00
2022-08-26T20:29:17.770Z,100.00
2022-08-26T20:31:47.004Z,100.00
2022-08-26T20:34:18.386Z,100.00
2022-08-26T20:36:48.128Z,100.00
2022-08-26T20:39:20.999Z,100.00
2022-08-26T20:41:48.937Z,100.00
2022-08-26T20:44:17.560Z,100.00
2022-08-26T20:46:45.342Z,100.00
2022-08-26T20:49:13.336Z,100.00
2022-08-26T20:51:45.500Z,100.00
2022-08-26T20:54:13.129Z,100.00
2022-08-26T20:56:40.329Z,100.00
2022-08-26T20:59:08.402Z,100.00
2022-08-26T21:01:42.318Z,100.00
2022-08-26T21:04:18.764Z,100.00
2022-08-26T21:06:52.087Z,100.00
2022-08-26T21:09:22.878Z,100.00
2022-08-26T21:11:50.684Z,100.00
2022-08-26T21:14:20.448Z,100.00
2022-08-26T21:16:47.760Z,100.00
2022-08-26T21:19:20.190Z,100.00
2022-08-26T21:21:49.680Z,99.58
2022-08-26T21:24:17.641Z,97.54
2022-08-26T21:26:45.810Z,94.07
2022-08-26T21:29:13.747Z,98.83
2022-08-26T21:31:45.766Z,96.21
2022-08-26T21:34:16.106Z,100.00
2022-08-26T21:36:44.416Z,100.00
2022-08-26T21:39:14.965Z,100.00
2022-08-26T21:41:44.229Z,98.64
2022-08-26T21:44:12.836Z,95.46
2022-08-26T21:46:40.956Z,85.48
2022-08-26T21:49:12.268Z,98.99
2022-08-26T21:51:45.470Z,98.03
2022-08-26T21:54:14.258Z,93.01
2022-08-26T21:56:46.018Z,90.17
2022-08-26T21:59:17.124Z,95.63
2022-08-26T22:01:44.383Z,81.95
2022-08-26T22:04:11.907Z,91.14
2022-08-26T22:06:46.548Z,93.25
2022-08-26T22:09:17.818Z,93.71
2022-08-26T22:11:46.283Z,95.84
2022-08-26T22:14:14.856Z,94.50
2022-08-26T22:16:42.152Z,94.27
2022-08-26T22:19:20.031Z,90.01
2022-08-26T22:21:50.019Z,82.70
2022-08-26T22:24:20.596Z,93.23
2022-08-26T22:26:49.674Z,94.49
2022-08-26T22:29:18.761Z,88.88
2022-08-26T22:31:46.270Z,84.47
2022-08-26T22:34:17.130Z,88.48
2022-08-26T22:36:48.283Z,92.35
2022-08-26T22:39:20.526Z,76.42
2022-08-26T22:41:48.818Z,87.81
2022-08-26T22:44:18.462Z,89.84
2022-08-26T22:46:46.985Z,93.81
2022-08-26T22:49:19.515Z,92.72
2022-08-26T22:51:46.901Z,91.35
2022-08-26T22:54:15.604Z,92.40
2022-08-26T22:56:45.001Z,92.60
2022-08-26T22:59:12.825Z,92.01
2022-08-26T23:01:44.048Z,88.05
2022-08-26T23:04:11.871Z,88.76
2022-08-26T23:06:43.197Z,88.06
2022-08-26T23:09:11.157Z,86.11
2022-08-26T23:11:42.173Z,90.39
2022-08-26T23:14:09.871Z,90.31
2022-08-26T23:16:41.605Z,84.93
2022-08-26T23:19:13.691Z,83.21
2022-08-26T23:21:41.249Z,84.98
2022-08-26T23:24:09.897Z,83.45
2022-08-26T23:26:39.169Z,83.59
2022-08-26T23:29:09.125Z,85.08
2022-08-26T23:31:39.600Z,85.14
2022-08-26T23:34:25.713Z,89.97
2022-08-26T23:36:53.219Z,89.91
2022-08-26T23:39:21.546Z,91.80
2022-08-26T23:41:48.836Z,91.70
2022-08-26T23:44:16.658Z,92.48
2022-08-26T23:46:44.036Z,91.31
2022-08-26T23:49:11.634Z,90.77
2022-08-26T23:52:03.506Z,89.35
2022-08-26T23:54:33.086Z,89.54
2022-08-26T23:57:00.505Z,91.19
2022-08-26T23:59:27.772Z,88.48
